Time;durP1;ratioP1;P1;durP2;ratioP2;P2;SDS_P1;SDS_P2;PMS_P1;PMS_P2;Temp;Humidity;BMP_temperature;BMP_pressure;BME280_temperature;BME280_humidity;BME280_pressure;Samples;Min_cycle;Max_cycle;Signal;HPM_P1;HPM_P2
2023/07/07 00:02:24;;;;;;;;;;;;;;;24.12;62.11;100053.41;4483448;32;34352;-78
2023/07/07 00:04:51;;;;;;;;;;;;;;;23.60;63.94;100051.03;4478173;32;34446;-78
2023/07/07 00:07:18;;;;;;;;;;;;;;;23.47;64.91;100058.16;4483209;32;34233;-78
2023/07/07 00:09:46;;;;;;;;;;;;;;;23.24;65.91;100055.56;4478648;32;34109;-78
2023/07/07 00:12:16;;;;;;;;;;;;;;;23.82;63.57;100053.63;4476978;32;32959;-79
2023/07/07 00:14:43;;;;;;;;;;;;;;;23.64;64.62;100055.44;4483809;32;34088;-78
2023/07/07 00:17:11;;;;;;;;;;;;;;;23.63;64.43;100053.66;4483485;32;34677;-78
2023/07/07 00:19:38;;;;;;;;;;;;;;;23.81;64.01;100057.13;4483116;32;34020;-78
2023/07/07 00:22:06;;;;;;;;;;;;;;;23.88;63.49;100054.44;4482085;32;31848;-78
2023/07/07 00:24:34;;;;;;;;;;;;;;;23.89;63.43;100050.03;4478376;32;34928;-78
2023/07/07 00:27:01;;;;;;;;;;;;;;;23.88;63.45;100048.28;4468297;32;34588;-78
2023/07/07 00:29:29;;;;;;;;;;;;;;;23.71;64.14;100046.56;4480492;32;34093;-78
2023/07/07 00:31:57;;;;;;;;;;;;;;;23.63;64.76;100051.03;4469968;32;33704;-77
2023/07/07 00:34:25;;;;;;;;;;;;;;;23.95;63.47;100055.28;4475674;32;34751;-78
2023/07/07 00:36:52;;;;;;;;;;;;;;;23.69;64.54;100056.28;4473780;32;34182;-78
2023/07/07 00:39:19;;;;;;;;;;;;;;;23.74;64.43;100062.44;4472207;32;32279;-78
2023/07/07 00:41:48;;;;;;;;;;;;;;;23.50;65.74;100065.16;4482480;32;33130;-78
2023/07/07 00:44:15;;;;;;;;;;;;;;;23.27;66.63;100055.56;4485336;32;33886;-78
2023/07/07 00:46:42;;;;;;;;;;;;;;;23.47;65.76;100062.53;4475602;32;34197;-78
2023/07/07 00:49:19;;;;;;;;;;;;;;;23.67;65.09;100054.53;4480638;32;34490;-78
2023/07/07 00:51:47;;;;;;;;;;;;;;;23.80;64.39;100064.19;4485301;32;34583;-78
2023/07/07 00:54:16;;;;;;;;;;;;;;;23.45;65.91;100064.31;4470434;32;34094;-78
2023/07/07 00:56:44;;;;;;;;;;;;;;;23.60;65.31;100060.72;4484189;32;34896;-78
2023/07/07 00:59:14;;;;;;;;;;;;;;;23.84;64.41;100054.50;4476125;32;33896;-77
2023/07/07 01:01:41;;;;;;;;;;;;;;;23.54;65.34;100059.84;4480996;32;33173;-78
2023/07/07 01:04:13;;;;;;;;;;;;;;;23.66;64.93;100066.88;4471419;32;33986;-78
2023/07/07 01:06:41;;;;;;;;;;;;;;;23.82;63.99;100064.19;4474092;32;34884;-78
2023/07/07 01:09:09;;;;;;;;;;;;;;;23.58;65.16;100068.66;4477861;32;34712;-78
2023/07/07 01:11:37;;;;;;;;;;;;;;;23.25;66.41;100067.87;4484544;32;33300;-78
2023/07/07 01:14:06;;;;;;;;;;;;;;;23.72;64.55;100066.84;4482956;32;33994;-78
2023/07/07 01:16:38;;;;;;;;;;;;;;;23.54;65.23;100066.91;4484441;32;34716;-78
2023/07/07 01:19:05;;;;;;;;;;;;;;;23.56;65.01;100067.78;4474462;32;33875;-77
2023/07/07 01:21:35;;;;;;;;;;;;;;;23.96;63.45;100062.34;4479995;32;33370;-77
2023/07/07 01:24:24;;;;;;;;;;;;;;;23.29;66.21;100068.75;4472498;32;35066;-78
2023/07/07 01:27:15;;;;;;;;;;;;;;;23.03;67.46;100066.19;4475728;32;34676;-78
2023/07/07 01:29:42;;;;;;;;;;;;;;;22.94;68.05;100070.56;4469676;32;33737;-77
2023/07/07 01:32:12;;;;;;;;;;;;;;;23.15;67.01;100066.16;4476195;32;34096;-78
2023/07/07 01:34:39;;;;;;;;;;;;;;;22.90;67.96;100071.44;4471938;32;34711;-79
2023/07/07 01:37:06;;;;;;;;;;;;;;;23.71;64.87;100073.00;4476700;32;33990;-77
2023/07/07 01:39:34;;;;;;;;;;;;;;;23.72;64.52;100072.13;4484168;32;34262;-78
2023/07/07 01:42:09;;;;;;;;;;;;;;;23.80;64.26;100073.88;4481269;32;33215;-78
2023/07/07 01:44:50;;;;;;;;;;;;;;;23.11;66.74;100067.06;4475183;32;33843;-78
2023/07/07 01:47:23;;;;;;;;;;;;;;;23.06;66.65;100072.34;4467976;32;34839;-77
2023/07/07 01:49:59;;;;;;;;;;;;;;;23.26;65.86;100077.59;4468857;32;33826;-77
2023/07/07 01:52:32;;;;;;;;;;;;;;;23.09;66.39;100077.63;4455550;32;31870;-78
2023/07/07 01:55:01;;;;;;;;;;;;;;;22.95;67.18;100071.47;4474038;32;33951;-77
2023/07/07 01:57:29;;;;;;;;;;;;;;;23.02;66.82;100069.69;4473047;32;33998;-78
2023/07/07 01:59:56;;;;;;;;;;;;;;;23.28;65.73;100072.31;4468153;32;34758;-78
2023/07/07 02:02:23;;;;;;;;;;;;;;;23.25;66.07;100073.19;4481120;32;33398;-78
2023/07/07 02:04:54;;;;;;;;;;;;;;;23.15;66.11;100076.72;4481705;32;33225;-78
2023/07/07 02:07:21;;;;;;;;;;;;;;;23.12;66.18;100082.00;4473177;32;34623;-77
2023/07/07 02:09:48;;;;;;;;;;;;;;;22.77;67.49;100077.63;4469409;32;34319;-77
2023/07/07 02:12:17;;;;;;;;;;;;;;;22.91;67.04;100073.22;4477818;32;33194;-77
2023/07/07 02:14:44;;;;;;;;;;;;;;;22.62;68.11;100075.88;4477320;32;34343;-77
2023/07/07 02:17:15;;;;;;;;;;;;;;;22.90;67.12;100066.16;4477063;32;33273;-77
2023/07/07 02:19:43;;;;;;;;;;;;;;;23.26;65.90;100072.31;4483543;32;34787;-78
2023/07/07 02:22:10;;;;;;;;;;;;;;;22.94;67.14;100072.34;4481657;32;33566;-78
2023/07/07 02:24:37;;;;;;;;;;;;;;;23.11;66.71;100064.41;4470170;32;32582;-78
2023/07/07 02:27:07;;;;;;;;;;;;;;;23.20;66.38;100068.78;4476363;32;33827;-78
2023/07/07 02:29:34;;;;;;;;;;;;;;;22.99;66.88;100073.22;4479913;32;34989;-78
2023/07/07 02:32:01;;;;;;;;;;;;;;;22.83;67.55;100069.72;4482758;32;33269;-77
2023/07/07 02:34:29;;;;;;;;;;;;;;;23.11;66.39;100075.00;4477602;32;35164;-77
2023/07/07 02:36:58;;;;;;;;;;;;;;;22.87;67.22;100076.75;4481065;32;32275;-77
2023/07/07 02:39:26;;;;;;;;;;;;;;;23.13;66.05;100074.09;4467200;32;33921;-79
2023/07/07 02:41:53;;;;;;;;;;;;;;;23.18;66.12;100076.75;4473623;32;32801;-78
2023/07/07 02:44:21;;;;;;;;;;;;;;;23.06;66.12;100076.75;4479534;32;35281;-78
2023/07/07 02:46:49;;;;;;;;;;;;;;;23.36;64.77;100076.66;4483292;32;34187;-78
2023/07/07 02:49:18;;;;;;;;;;;;;;;23.13;65.41;100073.22;4475079;32;34842;-77
2023/07/07 02:51:45;;;;;;;;;;;;;;;23.28;65.15;100073.19;4473758;32;32959;-78
2023/07/07 02:54:12;;;;;;;;;;;;;;;23.07;65.71;100082.03;4479911;32;34097;-78
2023/07/07 02:56:39;;;;;;;;;;;;;;;23.39;64.14;100080.19;4475271;32;34553;-78
2023/07/07 02:59:07;;;;;;;;;;;;;;;23.24;64.49;100076.72;4485647;32;34262;-78
2023/07/07 03:01:35;;;;;;;;;;;;;;;22.99;65.77;100082.91;4485276;32;34132;-78
2023/07/07 03:04:04;;;;;;;;;;;;;;;22.71;67.30;100090.84;4483701;32;34231;-77
2023/07/07 03:06:31;;;;;;;;;;;;;;;22.83;66.73;100090.84;4474288;32;33879;-78
2023/07/07 03:08:59;;;;;;;;;;;;;;;22.67;67.36;100083.81;4483394;32;34216;-77
2023/07/07 03:11:26;;;;;;;;;;;;;;;22.78;66.79;100092.59;4478317;32;33290;-77
2023/07/07 03:13:54;;;;;;;;;;;;;;;22.75;66.64;100092.59;4484907;32;34054;-78
2023/07/07 03:16:28;;;;;;;;;;;;;;;22.77;66.78;100086.44;4485014;32;34343;-78
2023/07/07 03:18:57;;;;;;;;;;;;;;;22.72;66.85;100104.03;4485151;32;33984;-78
2023/07/07 03:21:25;;;;;;;;;;;;;;;22.60;67.54;100104.06;4482250;32;34082;-78
2023/07/07 03:23:53;;;;;;;;;;;;;;;22.47;68.03;100103.16;4476018;32;35052;-78
2023/07/07 03:26:23;;;;;;;;;;;;;;;22.65;67.26;100102.28;4483180;32;33825;-77
2023/07/07 03:28:52;;;;;;;;;;;;;;;22.99;65.19;100115.47;4478830;32;33057;-77
2023/07/07 03:31:23;;;;;;;;;;;;;;;22.37;67.57;100111.94;4484049;32;33194;-78
2023/07/07 03:33:53;;;;;;;;;;;;;;;22.55;66.74;100111.94;4483628;32;34039;-78
2023/07/07 03:36:22;;;;;;;;;;;;;;;22.73;65.85;100115.47;4480357;32;33811;-78
2023/07/07 03:38:50;;;;;;;;;;;;;;;22.92;65.07;100117.22;4479101;32;33934;-78
2023/07/07 03:41:18;;;;;;;;;;;;;;;22.93;64.62;100126.94;4474469;32;33211;-78
2023/07/07 03:43:46;;;;;;;;;;;;;;;22.82;64.80;100126.06;4476143;32;32151;-78
2023/07/07 03:46:15;;;;;;;;;;;;;;;22.85;64.72;100135.72;4482815;32;34912;-78
2023/07/07 03:48:43;;;;;;;;;;;;;;;22.85;64.60;100131.34;4478609;32;34009;-78
2023/07/07 03:51:11;;;;;;;;;;;;;;;22.82;65.08;100136.63;4480541;32;33460;-78
2023/07/07 03:53:38;;;;;;;;;;;;;;;22.70;65.37;100136.63;4478706;32;35127;-78
2023/07/07 03:56:06;;;;;;;;;;;;;;;22.78;64.91;100129.56;4482941;32;34388;-77
2023/07/07 03:58:34;;;;;;;;;;;;;;;22.83;63.99;100133.09;4478421;32;34734;-77
2023/07/07 04:01:03;;;;;;;;;;;;;;;22.68;64.31;100133.09;4483622;32;34250;-78
2023/07/07 04:03:30;;;;;;;;;;;;;;;22.37;65.17;100133.94;4484876;32;35017;-77
2023/07/07 04:05:58;;;;;;;;;;;;;;;22.32;65.53;100145.34;4482377;32;34071;-78
2023/07/07 04:08:26;;;;;;;;;;;;;;;22.50;65.11;100137.50;4473819;32;34128;-80
2023/07/07 04:11:07;;;;;;;;;;;;;;;22.41;65.23;100139.19;4482921;32;34263;-81
2023/07/07 04:13:35;;;;;;;;;;;;;;;22.19;66.45;100144.41;4481878;32;33641;-79
2023/07/07 04:16:05;;;;;;;;;;;;;;;21.75;68.92;100143.38;4480514;32;34245;-78
2023/07/07 04:18:32;;;;;;;;;;;;;;;21.88;68.21;100149.56;4479252;32;34288;-79
2023/07/07 04:21:00;;;;;;;;;;;;;;;22.17;66.97;100147.06;4479222;32;33834;-80
2023/07/07 04:23:28;;;;;;;;;;;;;;;22.35;65.99;100156.81;4481918;32;35034;-79
2023/07/07 04:26:05;;;;;;;;;;;;;;;22.40;65.96;100159.44;4479171;32;35083;-77
2023/07/07 04:28:35;;;;;;;;;;;;;;;22.36;65.82;100162.94;4475497;32;34043;-78
2023/07/07 04:31:03;;;;;;;;;;;;;;;22.29;66.26;100163.81;4469282;32;34112;-78
2023/07/07 04:33:31;;;;;;;;;;;;;;;22.48;65.34;100168.25;4463981;32;30405;-80
2023/07/07 04:35:59;;;;;;;;;;;;;;;22.55;64.75;100167.38;4469544;32;34222;-81
2023/07/07 04:38:35;;;;;;;;;;;;;;;22.76;63.40;100170.94;4468185;32;33329;-77
2023/07/07 04:41:07;;;;;;;;;;;;;;;22.64;63.85;100170.91;4471360;32;33203;-81
2023/07/07 04:43:34;;;;;;;;;;;;;;;22.86;62.87;100170.06;4473563;32;34237;-79
2023/07/07 04:46:02;;;;;;;;;;;;;;;22.97;61.85;100168.31;4470804;32;33421;-79
2023/07/07 04:48:30;;;;;;;;;;;;;;;22.83;62.98;100174.47;4480437;32;35052;-80
2023/07/07 04:50:59;;;;;;;;;;;;;;;23.12;61.16;100177.13;4475129;32;32050;-81
2023/07/07 04:53:28;;;;;;;;;;;;;;;23.19;61.28;100172.75;4480334;32;33573;-82
2023/07/07 04:55:56;;;;;;;;;;;;;;;23.15;61.08;100174.50;4474801;32;35414;-81
2023/07/07 04:58:25;;;;;;;;;;;;;;;22.90;61.88;100177.09;4456094;32;32544;-81
2023/07/07 05:00:53;;;;;;;;;;;;;;;23.16;60.94;100174.50;4475507;32;33247;-80
2023/07/07 05:03:21;;;;;;;;;;;;;;;23.16;60.90;100173.63;4476757;32;33975;-78
2023/07/07 05:05:48;;;;;;;;;;;;;;;23.33;60.19;100171.84;4471131;32;35002;-81
2023/07/07 05:08:15;;;;;;;;;;;;;;;23.27;60.72;100171.84;4474134;32;34051;-80
2023/07/07 05:10:46;;;;;;;;;;;;;;;23.13;61.53;100181.56;4476087;32;33425;-81
2023/07/07 05:13:13;;;;;;;;;;;;;;;23.11;61.48;100176.25;4475610;32;33171;-78
2023/07/07 05:15:41;;;;;;;;;;;;;;;23.21;61.46;100185.06;4479307;32;33870;-80
2023/07/07 05:18:09;;;;;;;;;;;;;;;22.95;62.21;100180.66;4478884;32;34694;-78
2023/07/07 05:20:36;;;;;;;;;;;;;;;23.22;61.65;100181.56;4478547;32;33340;-80
2023/07/07 05:23:03;;;;;;;;;;;;;;;22.86;63.52;100196.47;4477336;32;34190;-77
2023/07/07 05:25:31;;;;;;;;;;;;;;;23.36;61.81;100200.03;4478987;32;34504;-78
2023/07/07 05:27:58;;;;;;;;;;;;;;;22.90;63.61;100198.25;4480292;32;34019;-80
2023/07/07 05:30:26;;;;;;;;;;;;;;;23.05;63.10;100191.25;4483411;32;33182;-78
2023/07/07 05:32:53;;;;;;;;;;;;;;;23.10;62.75;100189.47;4478544;32;34033;-80
2023/07/07 05:35:20;;;;;;;;;;;;;;;23.10;62.53;100194.75;4476163;32;34803;-80
2023/07/07 05:37:48;;;;;;;;;;;;;;;23.19;62.23;100197.41;4471031;32;33915;-81
2023/07/07 05:40:15;;;;;;;;;;;;;;;23.25;62.06;100200.03;4471921;32;33275;-78
2023/07/07 05:42:43;;;;;;;;;;;;;;;23.04;62.98;100197.41;4479083;32;33956;-80
2023/07/07 05:45:10;;;;;;;;;;;;;;;23.23;62.07;100199.16;4483186;32;34965;-79
2023/07/07 05:47:37;;;;;;;;;;;;;;;22.86;63.30;100195.59;4473773;32;35229;-78
2023/07/07 05:50:05;;;;;;;;;;;;;;;22.86;63.38;100196.47;4477333;32;33674;-78
2023/07/07 05:52:33;;;;;;;;;;;;;;;23.08;62.72;100201.81;4475864;32;34269;-79
2023/07/07 05:55:03;;;;;;;;;;;;;;;23.08;62.58;100204.44;4476720;32;34292;-81
2023/07/07 05:57:30;;;;;;;;;;;;;;;23.25;62.12;100200.03;4475418;32;33857;-79
2023/07/07 05:59:57;;;;;;;;;;;;;;;22.86;63.07;100201.75;4477247;32;34081;-81
2023/07/07 06:02:25;;;;;;;;;;;;;;;23.61;60.24;100205.28;4472826;32;34104;-79
2023/07/07 06:04:52;;;;;;;;;;;;;;;23.71;59.98;100218.47;4475261;32;34304;-77
2023/07/07 06:07:19;;;;;;;;;;;;;;;24.01;59.07;100219.31;4477092;32;33575;-77
2023/07/07 06:09:57;;;;;;;;;;;;;;;24.10;58.69;100213.97;4474746;32;33117;-78
2023/07/07 06:12:25;;;;;;;;;;;;;;;24.00;56.91;100212.25;4474016;32;34913;-79
2023/07/07 06:14:52;;;;;;;;;;;;;;;24.00;57.18;100222.84;4475032;32;34050;-77
2023/07/07 06:17:19;;;;;;;;;;;;;;;24.02;55.71;100220.19;4482879;32;34189;-78
2023/07/07 06:19:47;;;;;;;;;;;;;;;24.10;55.13;100227.22;4475440;32;33925;-79
2023/07/07 06:22:14;;;;;;;;;;;;;;;24.33;54.42;100226.25;4481691;32;35136;-79
2023/07/07 06:24:41;;;;;;;;;;;;;;;24.52;52.13;100232.38;4482427;32;33832;-79
2023/07/07 06:27:09;;;;;;;;;;;;;;;24.50;51.24;100231.47;4474158;32;34746;-79
2023/07/07 06:29:36;;;;;;;;;;;;;;;24.46;51.39;100238.53;4481697;32;33856;-78
2023/07/07 06:32:04;;;;;;;;;;;;;;;24.81;51.10;100228.66;4483829;32;33903;-79
2023/07/07 06:34:32;;;;;;;;;;;;;;;24.82;49.33;100230.41;4484395;32;34992;-80
2023/07/07 06:36:59;;;;;;;;;;;;;;;24.93;48.19;100232.09;4483571;32;34211;-80
2023/07/07 06:39:27;;;;;;;;;;;;;;;25.17;47.87;100245.16;4475107;32;33615;-78
2023/07/07 06:41:55;;;;;;;;;;;;;;;25.53;47.74;100235.19;4479721;32;33980;-79
2023/07/07 06:44:23;;;;;;;;;;;;;;;25.53;49.19;100244.00;4475081;32;33653;-80
2023/07/07 06:46:50;;;;;;;;;;;;;;;25.84;47.66;100246.34;4474066;32;34242;-78
2023/07/07 06:49:18;;;;;;;;;;;;;;;25.69;49.15;100240.31;4475358;32;31730;-80
2023/07/07 06:51:45;;;;;;;;;;;;;;;25.85;46.48;100243.69;4480245;32;35256;-79
2023/07/07 06:54:13;;;;;;;;;;;;;;;25.90;47.65;100243.63;4476864;32;33834;-81
2023/07/07 06:56:41;;;;;;;;;;;;;;;26.04;45.07;100241.75;4476510;32;33881;-78
2023/07/07 06:59:08;;;;;;;;;;;;;;;26.37;45.28;100236.91;4476552;32;33210;-78
2023/07/07 07:01:35;;;;;;;;;;;;;;;26.48;44.28;100237.66;4478611;32;33969;-78
2023/07/07 07:04:04;;;;;;;;;;;;;;;26.58;44.82;100245.47;4475152;32;35005;-77
2023/07/07 07:06:31;;;;;;;;;;;;;;;26.67;44.60;100245.38;4470801;32;34454;-78
2023/07/07 07:08:58;;;;;;;;;;;;;;;26.90;44.38;100241.50;4481308;32;33256;-79
2023/07/07 07:11:26;;;;;;;;;;;;;;;27.26;43.59;100240.94;4477691;32;34678;-78
2023/07/07 07:13:53;;;;;;;;;;;;;;;27.40;43.32;100247.81;4478597;32;34196;-77
2023/07/07 07:16:21;;;;;;;;;;;;;;;27.67;41.68;100254.44;4475735;32;33578;-78
2023/07/07 07:18:48;;;;;;;;;;;;;;;27.85;40.40;100251.44;4476374;32;33412;-78
2023/07/07 07:21:15;;;;;;;;;;;;;;;28.14;39.61;100251.78;4480763;32;34104;-77
2023/07/07 07:23:44;;;;;;;;;;;;;;;27.96;40.30;100253.91;4473087;32;33613;-78
2023/07/07 07:26:11;;;;;;;;;;;;;;;28.14;40.34;100250.00;4456730;32;33472;-79
2023/07/07 07:28:39;;;;;;;;;;;;;;;28.18;40.45;100253.47;4477319;32;33520;-78
2023/07/07 07:31:06;;;;;;;;;;;;;;;28.45;40.17;100257.34;4483047;32;33808;-78
2023/07/07 07:33:34;;;;;;;;;;;;;;;28.36;41.19;100257.56;4471390;32;34796;-79
2023/07/07 07:36:01;;;;;;;;;;;;;;;28.57;40.86;100261.59;4483493;32;33732;-78
2023/07/07 07:38:29;;;;;;;;;;;;;;;28.65;40.47;100262.28;4479093;32;33353;-77
2023/07/07 07:40:57;;;;;;;;;;;;;;;28.68;39.73;100267.53;4477807;32;34339;-79
2023/07/07 07:43:25;;;;;;;;;;;;;;;28.75;39.00;100265.62;4477383;32;34229;-80
2023/07/07 07:45:54;;;;;;;;;;;;;;;28.67;39.56;100273.78;4477933;32;34571;-78
2023/07/07 07:48:21;;;;;;;;;;;;;;;28.73;39.41;100273.66;4471602;32;33565;-79
2023/07/07 07:50:49;;;;;;;;;;;;;;;28.91;38.98;100277.69;4477640;32;33743;-79
2023/07/07 07:53:16;;;;;;;;;;;;;;;28.81;38.92;100271.69;4470885;32;33828;-80
2023/07/07 07:55:43;;;;;;;;;;;;;;;28.89;38.81;100262.62;4478372;32;35283;-79
2023/07/07 07:58:11;;;;;;;;;;;;;;;28.94;38.97;100271.41;4479925;32;33754;-78
2023/07/07 08:00:39;;;;;;;;;;;;;;;28.84;39.18;100276.09;4480459;32;34853;-78
2023/07/07 08:03:07;;;;;;;;;;;;;;;28.92;39.29;100268.78;4473963;32;33683;-78
2023/07/07 08:05:34;;;;;;;;;;;;;;;28.91;39.97;100277.69;4484125;32;34236;-79
2023/07/07 08:08:02;;;;;;;;;;;;;;;29.29;36.90;100275.06;4455806;32;897631;-78
2023/07/07 08:10:29;;;;;;;;;;;;;;;29.54;37.73;100284.19;4482643;32;34734;-79
2023/07/07 08:12:56;;;;;;;;;;;;;;;29.79;36.50;100286.25;4483050;32;34084;-76
2023/07/07 08:15:24;;;;;;;;;;;;;;;30.01;35.99;100283.84;4471490;32;34281;-78
2023/07/07 08:17:51;;;;;;;;;;;;;;;30.33;35.85;100285.66;4480287;32;34521;-80
2023/07/07 08:20:19;;;;;;;;;;;;;;;30.05;36.04;100284.66;4478182;32;34654;-80
2023/07/07 08:22:46;;;;;;;;;;;;;;;30.34;35.05;100282.03;4474209;32;33440;-79
2023/07/07 08:25:14;;;;;;;;;;;;;;;30.35;34.29;100278.47;4471683;32;34947;-79
2023/07/07 08:27:41;;;;;;;;;;;;;;;30.49;35.11;100274.50;4476763;32;33606;-78
2023/07/07 08:30:29;;;;;;;;;;;;;;;30.97;35.36;100279.31;4471285;32;34903;-78
2023/07/07 08:32:56;;;;;;;;;;;;;;;30.90;34.58;100285.75;4478020;32;34600;-78
2023/07/07 08:35:24;;;;;;;;;;;;;;;31.09;34.72;100281.56;4477565;32;34739;-79
2023/07/07 08:37:51;;;;;;;;;;;;;;;31.25;32.27;100287.28;4478205;32;33645;-78
2023/07/07 08:40:21;;;;;;;;;;;;;;;31.27;33.38;100287.25;4478917;32;34211;-77
2023/07/07 08:42:48;;;;;;;;;;;;;;;31.14;33.03;100284.97;4469291;32;34908;-81
2023/07/07 08:45:17;;;;;;;;;;;;;;;30.85;33.99;100279.62;4477187;32;33742;-79
2023/07/07 08:48:00;;;;;;;;;;;;;;;30.91;32.96;100287.53;4474368;32;33368;-78
2023/07/07 08:50:31;;;;;;;;;;;;;;;30.96;33.15;100285.56;4470655;32;34106;-78
2023/07/07 08:53:03;;;;;;;;;;;;;;;31.05;34.71;100290.63;4469388;32;34138;-77
2023/07/07 08:55:50;;;;;;;;;;;;;;;31.37;34.46;100291.37;4481029;32;34289;-79
2023/07/07 08:58:20;;;;;;;;;;;;;;;31.69;33.61;100292.13;4478955;32;33994;-78
2023/07/07 09:01:06;;;;;;;;;;;;;;;31.72;32.35;100292.03;4469754;32;34589;-78
2023/07/07 09:03:37;;;;;;;;;;;;;;;32.02;32.25;100297.25;4481185;32;34187;-79
2023/07/07 09:06:20;;;;;;;;;;;;;;;32.24;32.69;100292.84;4480284;32;34035;-78
2023/07/07 09:08:50;;;;;;;;;;;;;;;32.36;31.22;100298.69;4471644;32;33618;-78
2023/07/07 09:11:33;;;;;;;;;;;;;;;32.15;29.85;100301.22;4471273;32;34254;-79
2023/07/07 09:14:00;;;;;;;;;;;;;;;31.97;30.85;100296.47;4470466;32;33841;-79
2023/07/07 09:16:29;;;;;;;;;;;;;;;31.94;31.54;100298.34;4470612;32;33866;-79
2023/07/07 09:19:00;;;;;;;;;;;;;;;31.48;32.47;100301.75;4469311;32;33090;-78
2023/07/07 09:21:43;;;;;;;;;;;;;;;31.41;32.11;100309.09;4470490;32;35004;-78
2023/07/07 09:24:13;;;;;;;;;;;;;;;31.27;32.54;100297.94;4476127;32;34640;-78
2023/07/07 09:26:41;;;;;;;;;;;;;;;31.61;32.05;100300.41;4474627;32;33369;-79
2023/07/07 09:29:12;;;;;;;;;;;;;;;31.49;32.65;100307.06;4479591;32;33258;-79
2023/07/07 09:31:41;;;;;;;;;;;;;;;31.71;31.43;100300.97;4481840;32;34090;-77
2023/07/07 09:34:09;;;;;;;;;;;;;;;31.57;31.83;100298.78;4483601;32;33755;-77
2023/07/07 09:36:41;;;;;;;;;;;;;;;31.45;31.42;100304.53;4476887;32;33484;-78
2023/07/07 09:39:28;;;;;;;;;;;;;;;31.13;32.63;100307.31;4469290;32;32962;-80
2023/07/07 09:42:08;;;;;;;;;;;;;;;30.97;33.38;100303.38;4471548;32;34714;-78
2023/07/07 09:44:39;;;;;;;;;;;;;;;31.10;31.38;100299.41;4479164;32;34198;-80
2023/07/07 09:47:28;;;;;;;;;;;;;;;30.96;33.48;100302.50;4471896;32;34105;-81
2023/07/07 09:49:59;;;;;;;;;;;;;;;31.02;31.69;100296.06;4469899;32;32993;-81
2023/07/07 09:52:26;;;;;;;;;;;;;;;30.87;31.94;100304.56;4475733;32;34002;-81
2023/07/07 09:54:54;;;;;;;;;;;;;;;31.15;31.81;100300.09;4466609;32;33908;-80
2023/07/07 09:57:25;;;;;;;;;;;;;;;31.09;31.57;100297.63;4467952;32;35051;-80
2023/07/07 09:59:53;;;;;;;;;;;;;;;31.06;31.88;100297.75;4467986;32;32928;-79
2023/07/07 10:02:21;;;;;;;;;;;;;;;31.15;31.20;100302.78;4468851;32;34568;-81
2023/07/07 10:04:51;;;;;;;;;;;;;;;31.05;30.73;100304.00;4467345;32;35091;-81
2023/07/07 10:07:18;;;;;;;;;;;;;;;30.83;31.46;100301.09;4469168;32;34359;-79
2023/07/07 10:09:45;;;;;;;;;;;;;;;31.08;32.29;100295.91;4455735;32;32648;-79
2023/07/07 10:12:13;;;;;;;;;;;;;;;31.22;30.80;100299.94;4472033;32;34521;-80
2023/07/07 10:14:54;;;;;;;;;;;;;;;31.00;32.04;100294.37;4473992;32;34971;-81
2023/07/07 10:17:40;;;;;;;;;;;;;;;31.12;31.53;100302.03;4480418;32;33705;-80
2023/07/07 10:20:08;;;;;;;;;;;;;;;30.99;31.09;100298.00;4483967;32;34034;-81
2023/07/07 10:22:35;;;;;;;;;;;;;;;31.11;29.83;100298.44;4482675;32;34221;-81
2023/07/07 10:25:03;;;;;;;;;;;;;;;30.91;30.14;100303.56;4473293;32;34145;-81
2023/07/07 10:27:30;;;;;;;;;;;;;;;31.27;29.85;100306.84;4468636;32;34734;-82
2023/07/07 10:30:03;;;;;;;;;;;;;;;31.61;31.04;100310.25;4473532;32;33222;-79
2023/07/07 10:32:32;;;;;;;;;;;;;;;31.49;29.60;100303.53;4481387;32;33210;-82
2023/07/07 10:35:03;;;;;;;;;;;;;;;31.47;28.94;100308.06;4482659;32;34434;-82
2023/07/07 10:37:31;;;;;;;;;;;;;;;31.38;28.80;100298.47;4471334;32;33311;-79
2023/07/07 10:39:59;;;;;;;;;;;;;;;31.37;29.58;100296.75;4468949;32;34008;-80
2023/07/07 10:42:27;;;;;;;;;;;;;;;31.57;29.36;100295.22;4469026;32;33634;-81
2023/07/07 10:44:56;;;;;;;;;;;;;;;31.31;28.79;100297.81;4468708;32;35074;-81
2023/07/07 10:47:26;;;;;;;;;;;;;;;31.46;29.33;100291.09;4480835;32;34116;-80
2023/07/07 10:49:56;;;;;;;;;;;;;;;31.94;28.46;100293.00;4479109;32;32205;-83
2023/07/07 10:52:41;;;;;;;;;;;;;;;32.26;26.64;100282.03;4475722;32;33681;-80
2023/07/07 10:55:21;;;;;;;;;;;;;;;32.43;26.88;100278.75;4475776;32;35065;-82
2023/07/07 10:57:55;;;;;;;;;;;;;;;32.79;26.75;100286.34;4469385;32;33657;-81
2023/07/07 11:00:42;;;;;;;;;;;;;;;33.07;27.14;100284.28;4482375;32;33408;-83
2023/07/07 11:03:12;;;;;;;;;;;;;;;32.91;25.62;100280.47;4474096;32;32333;-85
2023/07/07 11:05:48;;;;;;;;;;;;;;;32.71;26.17;100284.81;4477616;32;34165;-81
2023/07/07 11:08:49;;;;;;;;;;;;;;;32.62;26.03;100285.16;4471733;32;33899;-79
2023/07/07 11:11:22;;;;;;;;;;;;;;;32.58;25.32;100288.91;4476465;32;33147;-79
2023/07/07 11:13:50;;;;;;;;;;;;;;;32.47;26.59;100280.38;4480895;32;34296;-78
2023/07/07 11:16:18;;;;;;;;;;;;;;;31.82;28.34;100282.72;4483166;32;34131;-81
2023/07/07 11:18:57;;;;;;;;;;;;;;;32.36;28.15;100287.97;4474297;32;34040;-79
2023/07/07 11:21:29;;;;;;;;;;;;;;;32.74;26.84;100278.44;4472436;32;33105;-80
2023/07/07 11:23:56;;;;;;;;;;;;;;;32.81;25.93;100279.09;4471208;32;33604;-80
2023/07/07 11:26:46;;;;;;;;;;;;;;;33.02;25.16;100272.84;4484068;32;34000;-80
2023/07/07 11:29:20;;;;;;;;;;;;;;;33.16;26.56;100271.47;4471576;32;33996;-79
2023/07/07 11:32:03;;;;;;;;;;;;;;;32.68;27.94;100276.91;4479326;32;33563;-78
2023/07/07 11:34:33;;;;;;;;;;;;;;;32.72;27.47;100273.16;4474588;32;34209;-79
2023/07/07 11:37:06;;;;;;;;;;;;;;;32.76;27.48;100275.72;4476641;32;33191;-79
2023/07/07 11:39:39;;;;;;;;;;;;;;;32.96;26.51;100273.12;4464762;32;34546;-78
2023/07/07 11:42:13;;;;;;;;;;;;;;;32.72;27.36;100275.84;4474523;32;34213;-79
2023/07/07 11:44:43;;;;;;;;;;;;;;;32.70;27.40;100271.47;4474633;32;34342;-79
2023/07/07 11:47:13;;;;;;;;;;;;;;;32.72;27.57;100275.84;4478318;32;33216;-78
2023/07/07 11:49:45;;;;;;;;;;;;;;;32.42;27.80;100275.19;4478884;32;34523;-79
2023/07/07 11:52:20;;;;;;;;;;;;;;;32.63;26.48;100270.84;4474212;32;33156;-79
2023/07/07 11:54:48;;;;;;;;;;;;;;;32.60;26.87;100265.59;4473876;32;34026;-79
2023/07/07 11:57:17;;;;;;;;;;;;;;;32.91;28.96;100264.37;4478196;32;34202;-78
2023/07/07 11:59:55;;;;;;;;;;;;;;;33.02;26.75;100272.84;4477822;32;34689;-79
2023/07/07 12:02:30;;;;;;;;;;;;;;;32.84;27.73;100266.44;4472834;32;33716;-78
2023/07/07 12:04:58;;;;;;;;;;;;;;;33.16;26.26;100269.62;4478764;32;34964;-80
2023/07/07 12:07:36;;;;;;;;;;;;;;;33.21;26.99;100261.41;4476347;32;33913;-81
2023/07/07 12:10:20;;;;;;;;;;;;;;;33.18;26.32;100261.53;4476912;32;34911;-81
2023/07/07 12:12:55;;;;;;;;;;;;;;;32.87;28.12;100265.44;4474319;32;32968;-80
2023/07/07 12:15:25;;;;;;;;;;;;;;;32.94;26.00;100258.03;4476262;32;33867;-78
2023/07/07 12:18:13;;;;;;;;;;;;;;;33.13;25.46;100260.84;4475688;32;33735;-80
2023/07/07 12:20:42;;;;;;;;;;;;;;;33.37;27.57;100267.00;4474122;32;32935;-78
2023/07/07 12:23:11;;;;;;;;;;;;;;;33.37;26.41;100261.63;4477353;32;34133;-79
2023/07/07 12:25:39;;;;;;;;;;;;;;;33.65;24.30;100262.22;4475458;32;34232;-81
2023/07/07 12:28:06;;;;;;;;;;;;;;;33.61;26.13;100257.91;4477083;32;34422;-80
2023/07/07 12:30:39;;;;;;;;;;;;;;;33.80;26.52;100257.97;4476995;32;34254;-83
2023/07/07 12:33:07;;;;;;;;;;;;;;;33.72;26.34;100253.87;4477312;32;33896;-78
2023/07/07 12:35:51;;;;;;;;;;;;;;;33.62;25.42;100248.00;4471234;32;34148;-80
2023/07/07 12:38:25;;;;;;;;;;;;;;;33.60;25.57;100252.59;4474873;32;34651;-79
2023/07/07 12:41:04;;;;;;;;;;;;;;;33.67;25.54;100246.06;4478914;32;34196;-80
2023/07/07 12:43:38;;;;;;;;;;;;;;;33.36;26.42;100249.12;4472303;32;33444;-79
2023/07/07 12:46:08;;;;;;;;;;;;;;;33.44;26.42;100241.63;4475206;32;33926;-78
2023/07/07 12:48:36;;;;;;;;;;;;;;;33.56;25.61;100240.22;4472077;32;33785;-78
2023/07/07 12:51:07;;;;;;;;;;;;;;;33.77;25.17;100242.00;4477465;32;33615;-79